Time;durP1;ratioP1;P1;durP2;ratioP2;P2;SDS_P1;SDS_P2;PMS_P1;PMS_P2;Temp;Humidity;BMP_temperature;BMP_pressure;BME280_temperature;BME280_humidity;BME280_pressure;Samples;Min_cycle;Max_cycle;Signal;HPM_P1;HPM_P2
2022/09/20 00:00:05;;;;;;;0.55;0.38;;;;;;;19.99;48.87;98103.94;5167495;27;20023;-70
2022/09/20 00:02:31;;;;;;;1.00;0.55;;;;;;;20.00;48.80;98116.31;5167238;27;20042;-70
2022/09/20 00:04:56;;;;;;;1.90;0.50;;;;;;;20.02;48.86;98127.66;5166566;27;20035;-67
2022/09/20 00:07:22;;;;;;;2.53;0.43;;;;;;;20.07;48.86;98140.44;5167800;27;20031;-68
2022/09/20 00:09:47;;;;;;;1.05;0.47;;;;;;;20.06;48.63;98125.38;5168477;27;20094;-69
2022/09/20 00:12:13;;;;;;;1.45;0.40;;;;;;;20.08;48.70;98131.34;5164643;27;20011;-66
2022/09/20 00:14:38;;;;;;;0.63;0.40;;;;;;;20.06;48.73;98128.88;5167751;27;20098;-68
2022/09/20 00:17:04;;;;;;;1.48;0.68;;;;;;;20.07;48.57;98135.88;5166492;27;20148;-67
2022/09/20 00:19:29;;;;;;;0.38;0.38;;;;;;;20.09;48.57;98128.44;5167167;27;20038;-67
2022/09/20 00:21:54;;;;;;;1.90;0.50;;;;;;;20.09;48.45;98136.47;5167828;27;20243;-68
2022/09/20 00:24:20;;;;;;;1.13;0.30;;;;;;;20.09;48.42;98147.22;5168113;27;20026;-69
2022/09/20 00:26:45;;;;;;;1.35;0.98;;;;;;;20.09;48.46;98147.22;5157838;27;20037;-68
2022/09/20 00:29:12;;;;;;;0.68;0.47;;;;;;;20.10;48.55;98156.94;5153275;27;20062;-67
2022/09/20 00:31:39;;;;;;;1.65;0.43;;;;;;;20.11;48.17;98150.50;5171333;27;20043;-67
2022/09/20 00:36:48;;;;;;;0.60;0.40;;;;;;;20.13;48.29;98161.88;5169587;27;20037;-67
2022/09/20 00:39:15;;;;;;;1.42;0.38;;;;;;;20.14;48.35;98170.75;5169478;27;20046;-68
2022/09/20 00:41:41;;;;;;;0.63;0.32;;;;;;;20.14;48.33;98162.72;5161033;27;20138;-74
2022/09/20 00:44:42;;;;;;;0.22;0.22;;;;;;;20.19;48.46;98164.72;5171029;27;20033;-69
2022/09/20 00:47:40;;;;;;;0.60;0.30;;;;;;;20.17;48.49;98177.56;5151257;27;20220;-65
2022/09/20 00:50:42;;;;;;;0.65;0.52;;;;;;;20.17;48.60;98174.88;5151192;27;20236;-67
2022/09/20 00:53:17;;;;;;;0.73;0.30;;;;;;;20.14;48.36;98184.19;5087029;28;20218;-67
2022/09/20 00:55:56;;;;;;;0.65;0.40;;;;;;;20.16;48.41;98192.00;5148609;27;20099;-71
2022/09/20 00:58:25;;;;;;;0.98;0.40;;;;;;;20.17;48.46;98185.59;5169438;27;20077;-69
2022/09/20 01:00:53;;;;;;;0.73;0.40;;;;;;;20.19;48.46;98202.34;5171743;27;20243;-69
2022/09/20 01:03:21;;;;;;;1.10;0.50;;;;;;;20.19;48.34;98188.91;5171383;27;20224;-69
2022/09/20 01:05:49;;;;;;;0.57;0.43;;;;;;;20.18;48.17;98182.69;5171832;27;20018;-68
2022/09/20 01:08:15;;;;;;;2.83;0.40;;;;;;;20.18;48.36;98195.31;5171268;27;20070;-67
2022/09/20 01:10:41;;;;;;;2.10;0.57;;;;;;;20.21;48.51;98200.25;5171313;27;20053;-69
2022/09/20 01:13:07;;;;;;;1.33;0.38;;;;;;;20.20;48.48;98203.97;5170551;27;20147;-69
2022/09/20 01:15:36;;;;;;;1.45;0.65;;;;;;;20.21;48.23;98211.81;5170881;27;20034;-68
2022/09/20 01:18:02;;;;;;;0.85;0.28;;;;;;;20.21;48.28;98208.31;5171304;27;20099;-69
2022/09/20 01:20:31;;;;;;;0.70;0.50;;;;;;;20.21;48.48;98216.38;5171405;27;20030;-69
2022/09/20 01:23:11;;;;;;;3.13;0.68;;;;;;;20.23;48.13;98230.38;5171251;27;20030;-69
2022/09/20 01:26:24;;;;;;;0.40;0.38;;;;;;;20.21;48.13;98227.13;5170940;27;20054;-68
2022/09/20 01:29:15;;;;;;;1.23;0.73;;;;;;;20.19;48.07;98226.50;5086850;28;20106;-69
2022/09/20 01:31:51;;;;;;;0.60;0.40;;;;;;;20.17;48.02;98234.75;5087429;28;20266;-68
2022/09/20 01:34:28;;;;;;;1.20;0.40;;;;;;;20.13;48.11;98223.63;5151746;27;20026;-69
2022/09/20 01:37:12;;;;;;;0.55;0.35;;;;;;;20.11;47.99;98228.38;5171222;27;20038;-69
2022/09/20 01:39:58;;;;;;;2.58;0.40;;;;;;;20.09;47.68;98233.16;5170888;27;20035;-70
2022/09/20 01:42:36;;;;;;;0.43;0.30;;;;;;;20.09;47.67;98240.38;5170584;27;20022;-70
2022/09/20 01:45:29;;;;;;;1.50;0.43;;;;;;;20.09;47.61;98243.06;5170338;27;20062;-69
2022/09/20 01:48:36;;;;;;;0.47;0.35;;;;;;;20.06;48.01;98256.91;5170818;27;20038;-69
2022/09/20 01:51:23;;;;;;;1.20;0.30;;;;;;;20.04;47.95;98241.03;5160156;27;20047;-70
2022/09/20 01:54:08;;;;;;;1.40;0.38;;;;;;;20.02;47.88;98261.91;5168927;27;20105;-69
2022/09/20 01:56:52;;;;;;;8.50;1.02;;;;;;;20.01;47.77;98262.94;5163177;27;20037;-68
2022/09/20 01:59:39;;;;;;;1.13;0.50;;;;;;;20.00;47.87;98266.66;5170516;27;20148;-69
2022/09/20 02:02:14;;;;;;;0.82;0.30;;;;;;;20.00;47.97;98265.84;5170612;27;20023;-69
2022/09/20 02:04:42;;;;;;;0.80;0.45;;;;;;;19.99;47.88;98267.69;5169888;27;20031;-69
2022/09/20 02:07:37;;;;;;;0.40;0.30;;;;;;;19.99;47.71;98273.06;5170476;27;20037;-69
2022/09/20 02:10:22;;;;;;;5.70;1.33;;;;;;;19.99;47.85;98274.94;5170683;27;20132;-70
2022/09/20 02:12:59;;;;;;;1.02;0.50;;;;;;;19.98;47.99;98284.84;5170006;27;20279;-69
2022/09/20 02:16:09;;;;;;;1.08;0.50;;;;;;;19.96;47.97;98278.84;5168883;27;20034;-70
2022/09/20 02:18:37;;;;;;;0.43;0.40;;;;;;;19.95;48.02;98291.47;5138558;27;20030;-69
2022/09/20 02:21:28;;;;;;;1.30;0.30;;;;;;;19.96;47.94;98298.50;5170154;27;20019;-69
2022/09/20 02:24:26;;;;;;;0.85;0.57;;;;;;;19.93;47.89;98304.28;5170188;27;20127;-70
2022/09/20 02:27:27;;;;;;;0.65;0.40;;;;;;;19.93;48.11;98308.81;5169145;27;20023;-70
2022/09/20 02:29:52;;;;;;;0.47;0.30;;;;;;;19.91;48.06;98325.13;5144631;27;20039;-68
2022/09/20 02:32:36;;;;;;;0.50;0.30;;;;;;;19.94;48.15;98321.19;5169848;27;20045;-69
2022/09/20 02:35:19;;;;;;;0.38;0.38;;;;;;;19.95;48.10;98325.53;5169929;27;20050;-69
2022/09/20 02:37:50;;;;;;;0.95;0.52;;;;;;;19.95;48.10;98334.41;5169619;27;20023;-69
2022/09/20 02:40:30;;;;;;;0.85;0.30;;;;;;;19.95;48.21;98333.56;5169769;27;20090;-69
2022/09/20 02:43:48;;;;;;;1.65;0.57;;;;;;;19.93;48.13;98339.16;5169650;27;20026;-69
2022/09/20 02:46:30;;;;;;;2.65;0.50;;;;;;;19.92;48.10;98336.72;5086232;28;20028;-69
2022/09/20 02:49:07;;;;;;;1.13;0.30;;;;;;;19.93;48.08;98347.22;5161040;27;20043;-70
2022/09/20 02:51:39;;;;;;;0.98;0.47;;;;;;;19.93;48.18;98357.97;5169583;27;20093;-68
2022/09/20 02:54:49;;;;;;;1.92;0.50;;;;;;;19.93;48.17;98351.75;5168916;27;20051;-68
2022/09/20 02:57:32;;;;;;;0.52;0.40;;;;;;;19.92;48.28;98361.69;5095808;27;20080;-70
2022/09/20 03:00:08;;;;;;;0.77;0.43;;;;;;;19.93;48.11;98371.38;5169437;27;20027;-69
2022/09/20 03:03:14;;;;;;;1.80;0.35;;;;;;;19.94;48.20;98374.88;5169127;27;20226;-69
2022/09/20 03:05:46;;;;;;;1.02;0.50;;;;;;;19.93;48.07;98383.97;5085788;28;20028;-70
2022/09/20 03:08:17;;;;;;;1.25;0.50;;;;;;;19.92;48.12;98388.53;5155246;27;20176;-70
2022/09/20 03:11:20;;;;;;;1.42;0.40;;;;;;;19.94;48.14;98396.34;5169044;27;20037;-69
2022/09/20 03:14:10;;;;;;;1.20;0.50;;;;;;;19.91;48.12;98402.16;5150709;27;20037;-70
2022/09/20 03:17:13;;;;;;;1.00;0.50;;;;;;;19.90;48.12;98411.25;5168739;27;20057;-70
2022/09/20 03:20:01;;;;;;;0.32;0.30;;;;;;;19.88;48.06;98413.31;5169044;27;20030;-69
2022/09/20 03:22:45;;;;;;;0.73;0.45;;;;;;;19.88;48.17;98413.31;5168895;27;20045;-69
2022/09/20 03:25:34;;;;;;;0.20;0.20;;;;;;;19.89;48.05;98426.53;5169066;27;20224;-69
2022/09/20 03:28:29;;;;;;;0.68;0.35;;;;;;;19.91;47.98;98429.00;5168806;27;20086;-69
2022/09/20 03:31:18;;;;;;;2.45;0.52;;;;;;;19.89;47.99;98439.13;5154405;27;20035;-69
2022/09/20 03:33:46;;;;;;;0.80;0.50;;;;;;;19.89;48.17;98437.25;5167454;27;20019;-69
2022/09/20 03:36:11;;;;;;;0.70;0.45;;;;;;;19.90;48.04;98443.47;5167987;27;20217;-68
2022/09/20 03:38:54;;;;;;;0.43;0.40;;;;;;;19.90;48.06;98448.84;5168486;27;20038;-69
2022/09/20 03:41:58;;;;;;;1.85;0.30;;;;;;;19.91;48.24;98458.53;5168770;27;20022;-69
2022/09/20 03:44:42;;;;;;;0.68;0.50;;;;;;;19.89;48.26;98458.72;5167437;27;20046;-69
2022/09/20 03:47:34;;;;;;;1.75;0.60;;;;;;;19.89;48.07;98460.59;5168719;27;20140;-70
2022/09/20 03:50:24;;;;;;;1.08;0.55;;;;;;;19.88;48.11;98457.06;5157774;27;20030;-69
2022/09/20 03:53:04;;;;;;;0.70;0.40;;;;;;;19.88;47.98;98467.00;5168287;27;20252;-68
2022/09/20 03:56:02;;;;;;;0.53;0.30;;;;;;;19.88;48.14;98467.00;5168634;27;20132;-69
2022/09/20 03:58:58;;;;;;;3.10;0.40;;;;;;;19.87;47.99;98479.59;5168341;27;20034;-69
2022/09/20 04:01:51;;;;;;;0.65;0.40;;;;;;;19.87;48.14;98471.53;5168543;27;20026;-69
2022/09/20 04:04:16;;;;;;;1.08;0.50;;;;;;;19.86;48.08;98485.13;5167497;27;20038;-69
2022/09/20 04:06:59;;;;;;;0.93;0.47;;;;;;;19.86;48.15;98487.81;5172216;27;20196;-69
2022/09/20 04:09:40;;;;;;;0.85;0.60;;;;;;;19.86;48.11;98488.63;5172642;27;20042;-69
2022/09/20 04:12:25;;;;;;;1.65;0.50;;;;;;;19.87;48.12;98492.19;5172632;27;20036;-68
2022/09/20 04:15:29;;;;;;;0.70;0.50;;;;;;;19.85;48.02;98487.00;5172447;27;20050;-69
2022/09/20 04:18:18;;;;;;;1.33;0.60;;;;;;;19.83;48.06;98508.69;5161197;27;20109;-69
2022/09/20 04:21:05;;;;;;;0.30;0.25;;;;;;;19.83;48.15;98507.88;5172842;27;20168;-69
2022/09/20 04:23:48;;;;;;;1.98;1.10;;;;;;;19.83;48.14;98511.34;5172244;27;20187;-69
2022/09/20 04:26:25;;;;;;;0.80;0.55;;;;;;;19.85;48.22;98521.06;5172178;27;20128;-69
2022/09/20 04:29:21;;;;;;;1.88;0.75;;;;;;;19.86;48.35;98517.34;5171886;27;20031;-69
2022/09/20 04:31:55;;;;;;;1.15;0.40;;;;;;;19.88;48.68;98531.44;5172261;27;20295;-68
2022/09/20 04:36:27;;;;;;;4.05;0.70;;;;;;;19.89;48.38;98535.78;5172341;27;20026;-69
2022/09/20 04:37:31;;;;;;;2.15;0.60;;;;;;;19.87;48.33;98533.28;5171565;27;20034;-69
2022/09/20 04:40:16;;;;;;;4.25;0.82;;;;;;;19.89;48.31;98541.13;5171583;27;20250;-69
2022/09/20 04:42:56;;;;;;;0.55;0.50;;;;;;;19.92;48.21;98543.41;5171068;27;21178;-68
2022/09/20 04:45:40;;;;;;;1.00;0.60;;;;;;;19.89;48.32;98550.00;5172349;27;20083;-69
2022/09/20 04:48:41;;;;;;;0.40;0.40;;;;;;;19.86;48.46;98550.38;5171891;27;20026;-69
2022/09/20 04:51:23;;;;;;;0.73;0.60;;;;;;;19.86;48.41;98558.44;5153651;27;20027;-68
2022/09/20 04:54:13;;;;;;;1.77;0.70;;;;;;;19.88;48.51;98563.66;5171160;27;20047;-68
2022/09/20 04:57:03;;;;;;;1.10;0.47;;;;;;;19.86;48.49;98568.34;5171116;27;20038;-69
2022/09/20 04:59:54;;;;;;;1.67;0.90;;;;;;;19.87;48.52;98559.31;5168944;27;20034;-69
2022/09/20 05:02:50;;;;;;;1.08;0.80;;;;;;;19.88;48.40;98572.50;5171440;27;20224;-68
2022/09/20 05:05:42;;;;;;;2.33;0.60;;;;;;;19.88;48.34;98577.06;5171272;27;20038;-69
2022/09/20 05:08:19;;;;;;;0.88;0.70;;;;;;;19.88;48.34;98574.38;5171451;27;20198;-67
2022/09/20 05:10:48;;;;;;;1.52;0.60;;;;;;;19.87;48.53;98570.84;5171559;27;20042;-69
2022/09/20 05:13:26;;;;;;;3.78;1.23;;;;;;;19.86;48.58;98577.22;5170612;27;20058;-67
2022/09/20 05:16:22;;;;;;;1.38;0.60;;;;;;;19.87;48.35;98575.41;5170830;27;20097;-68
2022/09/20 05:19:09;;;;;;;0.70;0.60;;;;;;;19.90;48.45;98601.84;5171237;27;20061;-67
2022/09/20 05:21:34;;;;;;;1.60;0.50;;;;;;;19.90;48.27;98599.97;5170888;27;20057;-68
2022/09/20 05:24:16;;;;;;;4.38;0.95;;;;;;;19.92;48.08;98597.91;5169538;27;20231;-69
2022/09/20 05:26:53;;;;;;;1.27;0.65;;;;;;;19.94;48.09;98598.53;5170967;27;20051;-69
2022/09/20 05:29:33;;;;;;;1.00;0.73;;;;;;;20.00;47.96;98606.81;5171068;27;20212;-69
2022/09/20 05:32:23;;;;;;;1.42;0.73;;;;;;;20.01;47.97;98606.59;5170910;27;20050;-68
2022/09/20 05:35:00;;;;;;;1.95;0.80;;;;;;;20.02;47.82;98613.63;5170250;27;20043;-67
2022/09/20 05:37:45;;;;;;;1.58;0.80;;;;;;;20.03;47.76;98611.75;5169645;27;20082;-69
2022/09/20 05:40:22;;;;;;;1.95;1.10;;;;;;;20.04;47.71;98624.16;5169965;27;20034;-68
2022/09/20 05:42:54;;;;;;;0.95;0.60;;;;;;;20.05;47.68;98620.44;5170589;27;20046;-67
2022/09/20 05:45:45;;;;;;;;;;;;;;;19.99;47.77;98630.16;5171057;27;20097;-67
2022/09/20 05:48:19;;;;;;;1.27;0.60;;;;;;;20.03;47.72;98617.13;5170137;27;19981;-67
2022/09/20 05:51:23;;;;;;;3.78;0.73;;;;;;;20.05;47.69;98632.03;5170558;27;20030;-67
2022/09/20 05:54:17;;;;;;;1.33;0.85;;;;;;;20.07;47.69;98635.31;5170415;27;20114;-69
2022/09/20 05:57:03;;;;;;;0.57;0.50;;;;;;;20.10;47.54;98637.59;5170587;27;20026;-68
2022/09/20 05:59:50;;;;;;;1.10;0.40;;;;;;;20.11;47.45;98635.75;5169730;27;20102;-69
2022/09/20 06:02:40;;;;;;;0.85;0.43;;;;;;;20.13;47.50;98636.38;5170345;27;20030;-67
2022/09/20 06:05:13;;;;;;;2.38;0.80;;;;;;;20.12;47.49;98648.16;5170416;27;20027;-68
2022/09/20 06:08:02;;;;;;;1.38;0.68;;;;;;;20.14;47.38;98654.16;5169873;27;20208;-69
2022/09/20 06:10:42;;;;;;;1.27;0.70;;;;;;;20.12;47.39;98651.66;5170662;27;20023;-67
2022/09/20 06:13:49;;;;;;;2.75;0.60;;;;;;;20.11;47.49;98654.53;5170328;27;20047;-68
2022/09/20 06:16:59;;;;;;;1.70;0.65;;;;;;;20.09;47.59;98661.97;5086435;28;20024;-67
2022/09/20 06:19:37;;;;;;;1.55;0.90;;;;;;;20.08;47.54;98663.81;5086078;28;20024;-68
2022/09/20 06:22:21;;;;;;;1.45;0.52;;;;;;;20.12;47.53;98667.75;5159984;27;20181;-69
2022/09/20 06:25:08;;;;;;;1.77;0.77;;;;;;;20.13;47.56;98674.78;5170117;27;20022;-69
2022/09/20 06:27:47;;;;;;;1.42;0.60;;;;;;;20.16;47.57;98680.78;5168955;27;20031;-69
2022/09/20 06:30:21;;;;;;;1.13;0.80;;;;;;;20.19;47.56;98666.94;5169402;27;20231;-67
2022/09/20 06:33:05;;;;;;;0.90;0.70;;;;;;;20.20;47.34;98679.34;5169544;27;20172;-66
2022/09/20 06:35:38;;;;;;;1.35;0.77;;;;;;;20.25;47.45;98685.75;5169433;27;20057;-70
2022/09/20 06:43:43;;;;;;;2.78;0.90;;;;;;;20.43;47.24;98687.84;5169599;27;20037;-66
2022/09/20 06:46:09;;;;;;;1.85;0.90;;;;;;;20.52;46.93;98687.63;5168853;27;20062;-66
2022/09/20 06:48:38;;;;;;;1.67;0.98;;;;;;;20.56;46.85;98696.91;5168484;27;20131;-67
2022/09/20 06:51:05;;;;;;;2.03;0.75;;;;;;;20.58;46.66;98692.16;5169567;27;20026;-66
2022/09/20 06:53:32;;;;;;;1.02;0.50;;;;;;;20.60;46.61;98700.84;5169273;27;20237;-69
2022/09/20 06:55:58;;;;;;;3.78;0.60;;;;;;;20.60;46.66;98706.22;5169041;27;20160;-69
2022/09/20 06:58:25;;;;;;;2.55;0.63;;;;;;;20.64;46.74;98709.31;5168705;27;20034;-66
2022/09/20 07:00:52;;;;;;;3.38;0.70;;;;;;;20.65;46.63;98717.22;5169197;27;20023;-68
2022/09/20 07:03:18;;;;;;;0.80;0.50;;;;;;;20.67;46.84;98723.16;5162850;27;20030;-67
2022/09/20 07:05:45;;;;;;;0.73;0.68;;;;;;;20.71;46.77;98720.91;5167320;27;20116;-67
2022/09/20 07:08:11;;;;;;;1.42;0.57;;;;;;;20.76;46.68;98717.63;5168540;27;20030;-67
2022/09/20 07:10:37;;;;;;;1.30;0.73;;;;;;;20.78;46.73;98720.94;5168260;27;20062;-68
2022/09/20 07:13:03;;;;;;;1.27;0.90;;;;;;;20.80;46.59;98725.06;5169095;27;20027;-68
2022/09/20 07:15:33;;;;;;;0.80;0.60;;;;;;;20.81;46.45;98732.09;5169130;27;20026;-68
2022/09/20 07:17:59;;;;;;;1.20;0.68;;;;;;;20.85;46.40;98722.59;5168388;27;20235;-68
2022/09/20 07:20:25;;;;;;;1.15;0.75;;;;;;;20.91;46.22;98734.38;5168922;27;20091;-66
2022/09/20 07:22:51;;;;;;;2.92;0.73;;;;;;;20.96;46.26;98726.50;5168859;27;20039;-68
2022/09/20 07:25:17;;;;;;;0.80;0.45;;;;;;;21.03;46.33;98737.25;5168226;27;20031;-68
2022/09/20 07:27:45;;;;;;;3.03;0.55;;;;;;;21.07;46.26;98735.81;5168711;27;20033;-69
2022/09/20 07:30:13;;;;;;;2.08;0.65;;;;;;;21.13;46.36;98742.19;5167651;27;20034;-67
2022/09/20 07:32:39;;;;;;;11.57;0.77;;;;;;;21.18;46.23;98742.41;5168704;27;20027;-67
2022/09/20 07:35:07;;;;;;;3.97;0.90;;;;;;;21.21;46.21;98746.53;5168861;27;20046;-67
2022/09/20 07:37:32;;;;;;;5.35;1.20;;;;;;;21.23;46.16;98750.69;5167798;27;20191;-66
2022/09/20 07:39:58;;;;;;;11.13;1.60;;;;;;;21.28;46.37;98758.94;5167243;27;20026;-67
2022/09/20 07:42:23;;;;;;;10.68;1.65;;;;;;;21.32;46.65;98762.88;5167862;27;20237;-68
2022/09/20 07:44:49;;;;;;;8.05;1.77;;;;;;;21.38;46.88;98765.78;5168720;27;20029;-68
2022/09/20 07:47:15;;;;;;;2.92;1.25;;;;;;;21.44;46.84;98767.59;5168617;27;20226;-69
2022/09/20 07:49:40;;;;;;;7.90;1.58;;;;;;;21.49;46.76;98771.31;5168010;27;20098;-66
2022/09/20 07:52:06;;;;;;;1.90;1.15;;;;;;;21.55;46.55;98763.44;5168048;27;20050;-69
2022/09/20 07:54:32;;;;;;;3.90;1.40;;;;;;;21.60;46.42;98769.06;5168742;27;20098;-68
2022/09/20 07:56:57;;;;;;;2.08;1.08;;;;;;;21.64;46.26;98756.81;5168599;27;20026;-64
2022/09/20 07:59:23;;;;;;;1.42;0.90;;;;;;;;;;5168349;27;20073;-69
2022/09/20 08:01:48;;;;;;;3.92;1.20;;;;;;;21.73;45.94;98773.56;5168021;27;20099;-68
2022/09/20 08:04:14;;;;;;;13.68;1.20;;;;;;;21.78;46.14;98754.91;5167363;27;20026;-67
2022/09/20 08:06:42;;;;;;;4.13;1.00;;;;;;;21.84;45.85;98772.06;5167963;27;20231;-67
2022/09/20 08:09:09;;;;;;;1.40;0.95;;;;;;;21.86;45.82;98770.81;5166394;27;20027;-69
2022/09/20 08:11:36;;;;;;;1.85;0.70;;;;;;;21.90;45.76;98768.53;5168226;27;20023;-67
2022/09/20 08:14:02;;;;;;;4.00;0.90;;;;;;;21.94;45.54;98778.66;5167221;27;20023;-69
2022/09/20 08:16:29;;;;;;;1.73;0.80;;;;;;;21.99;45.33;98779.88;5167692;27;20034;-69
2022/09/20 08:18:58;;;;;;;3.72;0.95;;;;;;;22.00;45.42;98778.81;5164214;27;20097;-65
2022/09/20 08:21:30;;;;;;;3.33;1.08;;;;;;;21.97;44.85;98785.47;5155797;27;20170;-66
2022/09/20 08:23:56;;;;;;;6.05;1.02;;;;;;;21.85;44.45;98779.09;5168040;27;20019;-67
2022/09/20 08:26:23;;;;;;;2.67;0.55;;;;;;;21.68;44.10;98781.47;5168417;27;20038;-68
2022/09/20 08:28:54;;;;;;;1.70;0.73;;;;;;;21.53;44.19;98774.44;5167949;27;20250;-67
2022/09/20 08:31:22;;;;;;;1.58;0.90;;;;;;;21.34;44.45;98782.34;5168286;27;20035;-65
2022/09/20 08:33:49;;;;;;;1.50;0.80;;;;;;;21.21;44.55;98793.13;5168240;27;20027;-68
2022/09/20 08:36:23;;;;;;;5.13;1.05;;;;;;;21.14;44.41;98786.91;5168201;27;20018;-67
2022/09/20 08:38:49;;;;;;;2.03;0.63;;;;;;;21.10;44.43;98797.25;5164614;27;20026;-66
2022/09/20 08:41:14;;;;;;;2.42;1.00;;;;;;;21.10;44.21;98805.31;5167582;27;20030;-66
2022/09/20 08:43:47;;;;;;;2.05;0.88;;;;;;;21.10;44.51;98807.19;5168081;27;20110;-66
2022/09/20 08:46:18;;;;;;;1.52;1.00;;;;;;;21.12;43.83;98799.72;5168221;27;20027;-66
2022/09/20 08:48:45;;;;;;;2.22;0.80;;;;;;;21.10;44.14;98813.38;5168148;27;20037;-65
2022/09/20 08:51:17;;;;;;;2.13;0.85;;;;;;;21.07;44.37;98804.91;5168706;27;20019;-67
2022/09/20 08:53:49;;;;;;;2.42;0.93;;;;;;;21.04;44.24;98814.22;5170825;27;20272;-67
2022/09/20 08:56:16;;;;;;;1.92;1.38;;;;;;;21.03;44.00;98810.72;5171309;27;20030;-67
2022/09/20 08:58:43;;;;;;;3.42;0.80;;;;;;;21.01;44.09;98806.56;5171403;27;20038;-66
2022/09/20 09:01:22;;;;;;;1.83;0.70;;;;;;;20.99;43.67;98811.34;5171620;27;20055;-68
2022/09/20 09:03:50;;;;;;;1.35;0.70;;;;;;;20.92;44.16;98811.34;5171752;27;20039;-67
2022/09/20 09:06:19;;;;;;;1.30;0.68;;;;;;;20.90;44.08;98808.00;5171385;27;20031;-69
2022/09/20 09:08:46;;;;;;;1.55;0.77;;;;;;;20.89;43.67;98817.13;5171446;27;20073;-69
2022/09/20 09:11:15;;;;;;;1.50;0.52;;;;;;;20.89;43.99;98811.72;5171579;27;20087;-67
2022/09/20 09:14:47;;;;;;;1.05;0.70;;;;;;;20.86;43.71;98820.22;5171400;27;20116;-66
2022/09/20 09:16:55;;;;;;;1.98;0.90;;;;;;;20.78;43.96;98821.22;5169957;27;20037;-68
2022/09/20 09:19:32;;;;;;;1.20;0.60;;;;;;;20.77;44.10;98824.13;5171109;27;20049;-67
2022/09/20 09:22:01;;;;;;;3.20;0.80;;;;;;;20.73;43.82;98821.00;5171430;27;20037;-67
2022/09/20 09:24:30;;;;;;;2.10;0.93;;;;;;;20.71;44.21;98833.81;5170666;27;20045;-66
2022/09/20 09:27:18;;;;;;;2.30;0.75;;;;;;;20.70;43.84;98822.22;5170971;27;20045;-67
2022/09/20 09:29:51;;;;;;;1.95;0.90;;;;;;;20.67;44.11;98825.31;5171209;27;20027;-68
2022/09/20 09:32:26;;;;;;;1.30;0.90;;;;;;;20.64;44.28;98827.59;5171271;27;20026;-66
2022/09/20 09:34:51;;;;;;;1.70;0.50;;;;;;;20.65;44.20;98831.94;5171432;27;20038;-68
2022/09/20 09:37:32;;;;;;;0.63;0.40;;;;;;;20.62;44.29;98833.19;5170950;27;20168;-67
2022/09/20 09:40:17;;;;;;;2.50;0.90;;;;;;;20.62;44.22;98838.56;5171280;27;20907;-66
2022/09/20 09:42:54;;;;;;;3.72;0.73;;;;;;;20.64;44.48;98841.88;5170898;27;20030;-67
2022/09/20 09:45:27;;;;;;;1.08;0.70;;;;;;;20.65;44.01;98843.53;5170935;27;20019;-69
2022/09/20 09:47:54;;;;;;;1.67;0.68;;;;;;;20.63;43.96;98845.59;5170663;27;20184;-68
2022/09/20 09:50:29;;;;;;;1.30;0.60;;;;;;;20.62;44.17;98848.47;5170059;27;20034;-66
2022/09/20 09:53:09;;;;;;;3.17;1.00;;;;;;;20.62;44.43;98843.94;5170179;27;20053;-67
2022/09/20 09:56:04;;;;;;;2.78;1.05;;;;;;;20.61;44.43;98850.34;5170404;27;20285;-68
2022/09/20 09:59:01;;;;;;;3.67;2.00;;;;;;;20.59;44.48;98855.09;5170612;27;20257;-68
2022/09/20 10:01:26;;;;;;;1.35;0.60;;;;;;;20.58;44.34;98861.50;5170568;27;20208;-68
2022/09/20 10:04:17;;;;;;;3.38;0.90;;;;;;;20.63;44.34;98858.19;5170528;27;20035;-68
2022/09/20 10:06:47;;;;;;;1.90;1.15;;;;;;;20.64;44.60;98863.38;5170450;27;20030;-68
2022/09/20 10:09:35;;;;;;;3.25;0.73;;;;;;;20.67;44.39;98870.19;5169197;27;20041;-67
2022/09/20 10:12:00;;;;;;;2.53;1.20;;;;;;;20.66;44.40;98872.03;5169864;27;20090;-67
2022/09/20 10:14:40;;;;;;;1.10;0.60;;;;;;;20.68;44.41;98880.72;5169873;27;20250;-66
2022/09/20 10:17:21;;;;;;;5.75;0.68;;;;;;;20.69;44.52;98876.19;5170244;27;20208;-67
2022/09/20 10:20:21;;;;;;;3.17;0.70;;;;;;;20.71;44.36;98879.53;5170511;27;20086;-68
2022/09/20 10:23:24;;;;;;;0.97;0.43;;;;;;;20.69;44.23;98873.50;5099990;27;20034;-68
2022/09/20 10:26:21;;;;;;;4.20;0.77;;;;;;;20.68;44.14;98871.84;5169774;27;20041;-69
2022/09/20 10:29:14;;;;;;;2.10;1.20;;;;;;;20.68;44.26;98880.72;5169678;27;20030;-69
2022/09/20 10:32:21;;;;;;;1.30;0.68;;;;;;;20.68;44.34;98886.09;5169553;27;20059;-66
2022/09/20 10:35:13;;;;;;;1.35;0.60;;;;;;;20.64;44.41;98890.25;5167807;27;20026;-68
2022/09/20 10:37:50;;;;;;;;;;;;;;;20.58;44.46;98888.38;5165820;27;20026;-69
2022/09/20 10:43:51;;;;;;;3.90;0.70;;;;;;;20.59;44.12;98888.16;5137666;27;20264;-66
2022/09/20 10:46:16;;;;;;;0.97;0.60;;;;;;;20.59;44.34;98901.59;5169369;27;20034;-67
2022/09/20 10:48:50;;;;;;;1.25;0.50;;;;;;;20.61;44.37;98901.41;5169629;27;20286;-66
2022/09/20 10:52:10;;;;;;;0.77;0.50;;;;;;;20.59;44.29;98903.47;5169533;27;20038;-67
2022/09/20 10:55:19;;;;;;;1.48;0.82;;;;;;;20.56;44.30;98896.63;5085803;28;20038;-68
2022/09/20 10:58:02;;;;;;;4.38;0.90;;;;;;;20.58;44.30;98909.88;5132127;27;20035;-67
2022/09/20 11:00:34;;;;;;;1.20;0.57;;;;;;;20.56;44.25;98909.22;5148947;27;20037;-66
2022/09/20 11:03:09;;;;;;;2.03;0.80;;;;;;;20.59;44.43;98903.47;5153912;27;20098;-67
2022/09/20 11:05:53;;;;;;;1.60;0.65;;;;;;;20.62;44.22;98913.81;5168343;27;20171;-66
2022/09/20 11:08:24;;;;;;;2.13;0.80;;;;;;;20.59;44.45;98925.78;5169080;27;20027;-67
2022/09/20 11:11:08;;;;;;;3.95;0.60;;;;;;;20.58;44.34;98936.75;5169215;27;20045;-67
2022/09/20 11:13:42;;;;;;;2.85;0.65;;;;;;;20.63;44.53;98928.91;5167763;27;20041;-67
2022/09/20 11:16:17;;;;;;;3.15;0.65;;;;;;;20.72;44.56;98941.13;5169210;27;20022;-67
2022/09/20 11:18:45;;;;;;;1.35;0.50;;;;;;;20.75;44.44;98953.38;5168884;27;20037;-66
2022/09/20 11:21:20;;;;;;;1.92;0.65;;;;;;;20.79;44.41;98957.31;5168750;27;20050;-69
2022/09/20 11:23:56;;;;;;;1.20;0.60;;;;;;;20.78;44.32;98976.34;5168744;27;20034;-67
2022/09/20 11:26:25;;;;;;;1.00;0.52;;;;;;;20.78;44.24;98963.72;5168838;27;20042;-66
2022/09/20 11:29:18;;;;;;;1.10;0.70;;;;;;;20.74;44.10;98974.03;5168222;27;20196;-68
2022/09/20 11:31:47;;;;;;;3.00;0.73;;;;;;;20.71;44.09;98971.72;5108312;27;20030;-68
2022/09/20 11:34:22;;;;;;;2.65;0.82;;;;;;;20.65;44.22;98972.56;5168722;27;20053;-69
2022/09/20 11:36:59;;;;;;;1.73;1.30;;;;;;;20.64;44.17;98973.59;5168854;27;20037;-67
2022/09/20 11:39:38;;;;;;;3.55;0.70;;;;;;;20.61;44.36;98967.75;5168507;27;20034;-67
2022/09/20 11:42:05;;;;;;;4.32;1.00;;;;;;;20.59;44.15;98974.16;5168171;27;20022;-69
2022/09/20 11:44:32;;;;;;;2.08;0.90;;;;;;;20.58;44.31;98983.28;5161996;27;20061;-69
2022/09/20 11:47:04;;;;;;;3.50;1.00;;;;;;;20.62;43.87;98980.16;5168547;27;20038;-68
2022/09/20 11:49:52;;;;;;;0.90;0.60;;;;;;;20.67;43.81;98978.53;5168471;27;21051;-69
2022/09/20 11:52:36;;;;;;;1.67;1.00;;;;;;;20.70;43.64;98983.50;5168404;27;20148;-68
2022/09/20 11:55:23;;;;;;;3.10;0.80;;;;;;;20.68;43.91;98977.50;5167360;27;20152;-69
2022/09/20 11:58:12;;;;;;;3.85;1.80;;;;;;;20.62;44.17;98975.63;5168435;27;20041;-68
2022/09/20 12:00:42;;;;;;;3.55;0.98;;;;;;;20.63;44.22;98988.03;5167502;27;20042;-68
2022/09/20 12:03:37;;;;;;;3.05;1.13;;;;;;;20.71;43.79;98995.94;5167971;27;20086;-69
2022/09/20 12:06:32;;;;;;;1.80;0.80;;;;;;;20.75;43.50;98988.31;5167879;27;20037;-68
2022/09/20 12:09:01;;;;;;;1.20;0.80;;;;;;;20.74;43.74;98995.53;5167690;27;20018;-67
2022/09/20 12:11:30;;;;;;;2.85;0.90;;;;;;;20.75;43.55;98996.38;5168531;27;20038;-68
2022/09/20 12:14:03;;;;;;;1.38;0.80;;;;;;;20.73;43.55;99001.94;5167997;27;20031;-67
2022/09/20 12:16:41;;;;;;;1.48;0.80;;;;;;;20.72;43.89;99011.03;5168111;27;20029;-67
2022/09/20 12:19:33;;;;;;;3.92;0.70;;;;;;;20.72;43.64;99005.66;5168297;27;20022;-66
2022/09/20 12:21:58;;;;;;;;;;;;;;;20.67;43.91;99018.03;5168630;27;20018;-70
2022/09/20 12:24:35;;;;;;;0.85;0.60;;;;;;;20.67;43.80;99004.59;5166897;27;19942;-67
2022/09/20 12:27:21;;;;;;;1.75;0.80;;;;;;;20.66;43.63;99011.00;5171137;27;20041;-69
2022/09/20 12:30:15;;;;;;;1.45;0.88;;;;;;;20.64;43.90;99016.59;5172422;27;20243;-69
2022/09/20 12:32:46;;;;;;;1.13;0.90;;;;;;;20.66;44.25;99016.38;5172013;27;20109;-68
2022/09/20 12:35:37;;;;;;;1.00;0.60;;;;;;;20.66;44.11;99021.75;5171955;27;20292;-68
2022/09/20 12:38:15;;;;;;;1.20;0.75;;;;;;;20.64;43.99;99013.91;5165328;27;20050;-68